sensor_id;sensor_type;location;lat;lon;timestamp;P1;durP1;ratioP1;P2;durP2;ratioP2
74612;SDS011;63119;51.788;8.824;2023-02-23T00:01:14;16.30;;;9.13;;
74612;SDS011;63119;51.788;8.824;2023-02-23T00:03:44;17.92;;;8.73;;
74612;SDS011;63119;51.788;8.824;2023-02-23T00:06:10;15.70;;;8.15;;
74612;SDS011;63119;51.788;8.824;2023-02-23T00:08:38;16.65;;;9.00;;
74612;SDS011;63119;51.788;8.824;2023-02-23T00:11:05;15.77;;;8.90;;
74612;SDS011;63119;51.788;8.824;2023-02-23T00:13:32;16.90;;;9.32;;
74612;SDS011;63119;51.788;8.824;2023-02-23T00:16:03;17.77;;;9.57;;
74612;SDS011;63119;51.788;8.824;2023-02-23T00:18:29;13.50;;;8.63;;
74612;SDS011;63119;51.788;8.824;2023-02-23T00:20:55;14.87;;;8.60;;
74612;SDS011;63119;51.788;8.824;2023-02-23T00:23:21;14.88;;;9.50;;
74612;SDS011;63119;51.788;8.824;2023-02-23T00:25:47;16.40;;;9.68;;
74612;SDS011;63119;51.788;8.824;2023-02-23T00:28:12;16.53;;;8.97;;
74612;SDS011;63119;51.788;8.824;2023-02-23T00:30:37;14.63;;;9.13;;
74612;SDS011;63119;51.788;8.824;2023-02-23T00:33:03;22.33;;;11.10;;
74612;SDS011;63119;51.788;8.824;2023-02-23T00:35:28;16.77;;;10.73;;
74612;SDS011;63119;51.788;8.824;2023-02-23T00:37:53;19.93;;;10.27;;
74612;SDS011;63119;51.788;8.824;2023-02-23T00:40:19;16.83;;;10.17;;
74612;SDS011;63119;51.788;8.824;2023-02-23T00:42:46;18.20;;;10.70;;
74612;SDS011;63119;51.788;8.824;2023-02-23T00:45:14;16.27;;;10.00;;
74612;SDS011;63119;51.788;8.824;2023-02-23T00:47:40;16.85;;;9.73;;
74612;SDS011;63119;51.788;8.824;2023-02-23T00:50:08;19.73;;;11.13;;
74612;SDS011;63119;51.788;8.824;2023-02-23T00:52:38;19.00;;;10.77;;
74612;SDS011;63119;51.788;8.824;2023-02-23T00:55:07;20.35;;;10.55;;
74612;SDS011;63119;51.788;8.824;2023-02-23T00:57:34;21.02;;;11.35;;
74612;SDS011;63119;51.788;8.824;2023-02-23T01:00:00;20.02;;;10.95;;
74612;SDS011;63119;51.788;8.824;2023-02-23T01:02:27;19.77;;;10.50;;
74612;SDS011;63119;51.788;8.824;2023-02-23T01:07:19;18.07;;;9.60;;
74612;SDS011;63119;51.788;8.824;2023-02-23T01:09:45;19.07;;;11.73;;
74612;SDS011;63119;51.788;8.824;2023-02-23T01:12:10;19.10;;;11.07;;
74612;SDS011;63119;51.788;8.824;2023-02-23T01:14:35;18.63;;;10.10;;
74612;SDS011;63119;51.788;8.824;2023-02-23T01:17:01;17.25;;;10.52;;
74612;SDS011;63119;51.788;8.824;2023-02-23T01:19:27;24.17;;;11.23;;
74612;SDS011;63119;51.788;8.824;2023-02-23T01:21:52;19.97;;;12.40;;
74612;SDS011;63119;51.788;8.824;2023-02-23T01:24:17;19.60;;;11.65;;
74612;SDS011;63119;51.788;8.824;2023-02-23T01:26:43;23.83;;;12.17;;
74612;SDS011;63119;51.788;8.824;2023-02-23T01:29:10;24.67;;;14.20;;
74612;SDS011;63119;51.788;8.824;2023-02-23T01:31:41;24.40;;;14.15;;
74612;SDS011;63119;51.788;8.824;2023-02-23T01:34:09;27.48;;;12.82;;
74612;SDS011;63119;51.788;8.824;2023-02-23T01:36:36;26.52;;;14.85;;
74612;SDS011;63119;51.788;8.824;2023-02-23T01:39:03;25.58;;;13.20;;
74612;SDS011;63119;51.788;8.824;2023-02-23T01:41:31;25.52;;;13.65;;
74612;SDS011;63119;51.788;8.824;2023-02-23T01:44:03;26.35;;;13.95;;
74612;SDS011;63119;51.788;8.824;2023-02-23T01:46:31;24.58;;;13.20;;
74612;SDS011;63119;51.788;8.824;2023-02-23T01:48:58;20.85;;;12.63;;
74612;SDS011;63119;51.788;8.824;2023-02-23T01:51:27;29.95;;;13.27;;
74612;SDS011;63119;51.788;8.824;2023-02-23T01:53:59;23.70;;;12.93;;
74612;SDS011;63119;51.788;8.824;2023-02-23T01:56:29;25.58;;;14.75;;
74612;SDS011;63119;51.788;8.824;2023-02-23T01:58:57;24.85;;;13.52;;
74612;SDS011;63119;51.788;8.824;2023-02-23T02:01:25;28.15;;;14.95;;
74612;SDS011;63119;51.788;8.824;2023-02-23T02:03:54;27.73;;;15.32;;
74612;SDS011;63119;51.788;8.824;2023-02-23T02:06:23;25.88;;;14.70;;
74612;SDS011;63119;51.788;8.824;2023-02-23T02:08:54;24.10;;;13.98;;
74612;SDS011;63119;51.788;8.824;2023-02-23T02:11:23;26.98;;;14.63;;
74612;SDS011;63119;51.788;8.824;2023-02-23T02:14:01;31.13;;;15.35;;
74612;SDS011;63119;51.788;8.824;2023-02-23T02:19:08;29.87;;;17.03;;
74612;SDS011;63119;51.788;8.824;2023-02-23T02:21:57;32.20;;;17.60;;
74612;SDS011;63119;51.788;8.824;2023-02-23T02:24:47;33.65;;;17.60;;
74612;SDS011;63119;51.788;8.824;2023-02-23T02:27:23;33.38;;;18.27;;
74612;SDS011;63119;51.788;8.824;2023-02-23T02:35:43;33.50;;;19.67;;
74612;SDS011;63119;51.788;8.824;2023-02-23T02:41:24;36.25;;;19.50;;
74612;SDS011;63119;51.788;8.824;2023-02-23T02:44:16;35.33;;;19.40;;
74612;SDS011;63119;51.788;8.824;2023-02-23T02:46:48;32.92;;;20.40;;
74612;SDS011;63119;51.788;8.824;2023-02-23T02:49:34;37.90;;;20.42;;
74612;SDS011;63119;51.788;8.824;2023-02-23T02:52:11;36.15;;;19.38;;
74612;SDS011;63119;51.788;8.824;2023-02-23T02:54:40;33.97;;;19.60;;
74612;SDS011;63119;51.788;8.824;2023-02-23T02:57:12;38.33;;;19.63;;
74612;SDS011;63119;51.788;8.824;2023-02-23T02:59:42;34.45;;;19.27;;
74612;SDS011;63119;51.788;8.824;2023-02-23T03:02:28;35.20;;;19.15;;
74612;SDS011;63119;51.788;8.824;2023-02-23T03:05:16;35.47;;;18.27;;
74612;SDS011;63119;51.788;8.824;2023-02-23T03:08:08;31.27;;;18.63;;
74612;SDS011;63119;51.788;8.824;2023-02-23T03:11:01;34.90;;;18.98;;
74612;SDS011;63119;51.788;8.824;2023-02-23T03:14:00;35.05;;;18.83;;
74612;SDS011;63119;51.788;8.824;2023-02-23T03:22:46;36.53;;;19.83;;
74612;SDS011;63119;51.788;8.824;2023-02-23T03:28:54;38.10;;;20.70;;
74612;SDS011;63119;51.788;8.824;2023-02-23T03:31:52;36.72;;;21.02;;
74612;SDS011;63119;51.788;8.824;2023-02-23T03:34:53;34.78;;;20.42;;
74612;SDS011;63119;51.788;8.824;2023-02-23T03:37:46;34.33;;;20.33;;
74612;SDS011;63119;51.788;8.824;2023-02-23T03:40:37;33.35;;;18.58;;
74612;SDS011;63119;51.788;8.824;2023-02-23T03:43:24;41.15;;;21.27;;
74612;SDS011;63119;51.788;8.824;2023-02-23T03:46:15;36.30;;;22.55;;
74612;SDS011;63119;51.788;8.824;2023-02-23T03:49:02;36.53;;;21.95;;
74612;SDS011;63119;51.788;8.824;2023-02-23T03:51:52;41.33;;;21.98;;
74612;SDS011;63119;51.788;8.824;2023-02-23T03:54:46;48.38;;;24.85;;
74612;SDS011;63119;51.788;8.824;2023-02-23T03:57:36;43.90;;;21.75;;
74612;SDS011;63119;51.788;8.824;2023-02-23T04:00:24;45.47;;;22.75;;
74612;SDS011;63119;51.788;8.824;2023-02-23T04:03:19;43.35;;;23.05;;
74612;SDS011;63119;51.788;8.824;2023-02-23T04:06:05;43.33;;;21.70;;
74612;SDS011;63119;51.788;8.824;2023-02-23T04:08:55;38.17;;;21.73;;
74612;SDS011;63119;51.788;8.824;2023-02-23T04:17:22;45.33;;;22.95;;
74612;SDS011;63119;51.788;8.824;2023-02-23T04:19:51;40.67;;;22.42;;
74612;SDS011;63119;51.788;8.824;2023-02-23T04:22:17;42.90;;;22.73;;
74612;SDS011;63119;51.788;8.824;2023-02-23T04:24:42;47.58;;;24.05;;
74612;SDS011;63119;51.788;8.824;2023-02-23T04:27:10;43.92;;;24.33;;
74612;SDS011;63119;51.788;8.824;2023-02-23T04:29:35;44.15;;;24.27;;
74612;SDS011;63119;51.788;8.824;2023-02-23T04:32:00;45.73;;;23.90;;
74612;SDS011;63119;51.788;8.824;2023-02-23T04:34:25;47.80;;;25.50;;
74612;SDS011;63119;51.788;8.824;2023-02-23T04:36:51;45.50;;;24.90;;
74612;SDS011;63119;51.788;8.824;2023-02-23T04:39:16;51.33;;;26.20;;
74612;SDS011;63119;51.788;8.824;2023-02-23T04:41:41;48.47;;;24.43;;
74612;SDS011;63119;51.788;8.824;2023-02-23T04:44:06;50.60;;;26.67;;
74612;SDS011;63119;51.788;8.824;2023-02-23T04:46:32;53.57;;;27.57;;
74612;SDS011;63119;51.788;8.824;2023-02-23T04:48:57;55.03;;;27.43;;
74612;SDS011;63119;51.788;8.824;2023-02-23T04:51:23;51.40;;;28.10;;
74612;SDS011;63119;51.788;8.824;2023-02-23T04:53:48;47.07;;;25.37;;
74612;SDS011;63119;51.788;8.824;2023-02-23T04:56:13;49.90;;;26.33;;
74612;SDS011;63119;51.788;8.824;2023-02-23T04:58:39;49.97;;;26.63;;
74612;SDS011;63119;51.788;8.824;2023-02-23T05:01:05;52.87;;;26.63;;
74612;SDS011;63119;51.788;8.824;2023-02-23T05:03:31;50.17;;;29.27;;
74612;SDS011;63119;51.788;8.824;2023-02-23T05:05:57;58.37;;;29.70;;
74612;SDS011;63119;51.788;8.824;2023-02-23T05:08:22;60.53;;;30.00;;
74612;SDS011;63119;51.788;8.824;2023-02-23T05:10:47;59.77;;;29.07;;
74612;SDS011;63119;51.788;8.824;2023-02-23T05:13:13;57.75;;;29.13;;
74612;SDS011;63119;51.788;8.824;2023-02-23T05:15:39;56.13;;;28.63;;
74612;SDS011;63119;51.788;8.824;2023-02-23T05:18:05;58.40;;;31.17;;
74612;SDS011;63119;51.788;8.824;2023-02-23T05:20:31;54.97;;;28.02;;
74612;SDS011;63119;51.788;8.824;2023-02-23T05:22:56;60.50;;;33.53;;
74612;SDS011;63119;51.788;8.824;2023-02-23T05:25:22;64.07;;;34.85;;
74612;SDS011;63119;51.788;8.824;2023-02-23T05:27:48;63.90;;;33.00;;
74612;SDS011;63119;51.788;8.824;2023-02-23T05:30:13;70.15;;;33.72;;
74612;SDS011;63119;51.788;8.824;2023-02-23T05:32:39;65.97;;;33.75;;
74612;SDS011;63119;51.788;8.824;2023-02-23T05:35:04;65.67;;;31.97;;
74612;SDS011;63119;51.788;8.824;2023-02-23T05:37:31;61.50;;;31.55;;
74612;SDS011;63119;51.788;8.824;2023-02-23T05:39:56;61.03;;;32.35;;
74612;SDS011;63119;51.788;8.824;2023-02-23T05:42:22;65.47;;;29.83;;
74612;SDS011;63119;51.788;8.824;2023-02-23T05:44:47;60.77;;;29.27;;
74612;SDS011;63119;51.788;8.824;2023-02-23T05:47:12;61.77;;;31.40;;
74612;SDS011;63119;51.788;8.824;2023-02-23T05:49:38;58.90;;;30.60;;
74612;SDS011;63119;51.788;8.824;2023-02-23T05:52:03;63.33;;;30.90;;
74612;SDS011;63119;51.788;8.824;2023-02-23T05:54:29;62.40;;;32.28;;
74612;SDS011;63119;51.788;8.824;2023-02-23T05:56:54;71.90;;;33.07;;
74612;SDS011;63119;51.788;8.824;2023-02-23T05:59:19;55.07;;;29.87;;
74612;SDS011;63119;51.788;8.824;2023-02-23T06:01:44;56.17;;;30.63;;
74612;SDS011;63119;51.788;8.824;2023-02-23T06:04:10;59.03;;;29.98;;
74612;SDS011;63119;51.788;8.824;2023-02-23T06:06:35;69.30;;;34.77;;
74612;SDS011;63119;51.788;8.824;2023-02-23T06:09:03;69.97;;;33.70;;
74612;SDS011;63119;51.788;8.824;2023-02-23T06:11:28;69.07;;;33.28;;
74612;SDS011;63119;51.788;8.824;2023-02-23T06:13:54;68.90;;;33.83;;
74612;SDS011;63119;51.788;8.824;2023-02-23T06:16:23;61.13;;;30.55;;
74612;SDS011;63119;51.788;8.824;2023-02-23T06:18:48;60.50;;;30.77;;
74612;SDS011;63119;51.788;8.824;2023-02-23T06:21:13;61.60;;;31.90;;
74612;SDS011;63119;51.788;8.824;2023-02-23T06:23:39;57.40;;;29.80;;
74612;SDS011;63119;51.788;8.824;2023-02-23T06:26:04;62.93;;;31.87;;
74612;SDS011;63119;51.788;8.824;2023-02-23T06:28:29;66.63;;;32.07;;
74612;SDS011;63119;51.788;8.824;2023-02-23T06:30:55;61.07;;;31.77;;
74612;SDS011;63119;51.788;8.824;2023-02-23T06:33:20;68.07;;;34.25;;
74612;SDS011;63119;51.788;8.824;2023-02-23T06:35:46;72.03;;;33.35;;
74612;SDS011;63119;51.788;8.824;2023-02-23T06:38:11;69.70;;;34.93;;
74612;SDS011;63119;51.788;8.824;2023-02-23T06:40:37;68.20;;;33.88;;
74612;SDS011;63119;51.788;8.824;2023-02-23T06:43:03;64.80;;;32.42;;
74612;SDS011;63119;51.788;8.824;2023-02-23T06:45:29;69.15;;;34.47;;
74612;SDS011;63119;51.788;8.824;2023-02-23T06:47:55;67.18;;;33.75;;
74612;SDS011;63119;51.788;8.824;2023-02-23T06:50:21;65.38;;;31.52;;
74612;SDS011;63119;51.788;8.824;2023-02-23T06:52:46;65.25;;;32.75;;
74612;SDS011;63119;51.788;8.824;2023-02-23T06:55:12;59.78;;;32.08;;
74612;SDS011;63119;51.788;8.824;2023-02-23T06:57:38;71.20;;;34.22;;
74612;SDS011;63119;51.788;8.824;2023-02-23T07:00:05;67.05;;;31.40;;
74612;SDS011;63119;51.788;8.824;2023-02-23T07:02:31;66.05;;;32.25;;
74612;SDS011;63119;51.788;8.824;2023-02-23T07:04:56;67.97;;;35.70;;
74612;SDS011;63119;51.788;8.824;2023-02-23T07:07:22;61.47;;;32.92;;
74612;SDS011;63119;51.788;8.824;2023-02-23T07:09:47;65.80;;;33.73;;
74612;SDS011;63119;51.788;8.824;2023-02-23T07:12:13;63.67;;;32.37;;
74612;SDS011;63119;51.788;8.824;2023-02-23T07:14:38;70.43;;;34.80;;
74612;SDS011;63119;51.788;8.824;2023-02-23T07:17:03;73.47;;;35.20;;
74612;SDS011;63119;51.788;8.824;2023-02-23T07:19:29;73.72;;;37.10;;
74612;SDS011;63119;51.788;8.824;2023-02-23T07:21:56;77.90;;;40.13;;
74612;SDS011;63119;51.788;8.824;2023-02-23T07:24:21;81.53;;;39.20;;
74612;SDS011;63119;51.788;8.824;2023-02-23T07:26:46;76.70;;;37.67;;
74612;SDS011;63119;51.788;8.824;2023-02-23T07:29:13;80.13;;;38.83;;
74612;SDS011;63119;51.788;8.824;2023-02-23T07:31:39;74.43;;;37.20;;
74612;SDS011;63119;51.788;8.824;2023-02-23T07:34:05;80.88;;;37.65;;
74612;SDS011;63119;51.788;8.824;2023-02-23T07:36:31;81.00;;;38.40;;
74612;SDS011;63119;51.788;8.824;2023-02-23T07:38:56;77.47;;;35.67;;
74612;SDS011;63119;51.788;8.824;2023-02-23T07:41:21;74.73;;;35.50;;
74612;SDS011;63119;51.788;8.824;2023-02-23T07:43:47;73.38;;;37.42;;
74612;SDS011;63119;51.788;8.824;2023-02-23T07:46:12;71.00;;;37.07;;
74612;SDS011;63119;51.788;8.824;2023-02-23T07:48:39;80.15;;;37.22;;
74612;SDS011;63119;51.788;8.824;2023-02-23T07:51:12;74.18;;;38.47;;
74612;SDS011;63119;51.788;8.824;2023-02-23T07:53:39;73.32;;;37.42;;
74612;SDS011;63119;51.788;8.824;2023-02-23T07:56:06;80.72;;;39.05;;
74612;SDS011;63119;51.788;8.824;2023-02-23T07:58:34;75.97;;;36.35;;
74612;SDS011;63119;51.788;8.824;2023-02-23T08:00:59;74.40;;;38.40;;
74612;SDS011;63119;51.788;8.824;2023-02-23T08:03:25;74.03;;;37.07;;
74612;SDS011;63119;51.788;8.824;2023-02-23T08:05:50;77.93;;;37.55;;
74612;SDS011;63119;51.788;8.824;2023-02-23T08:08:15;82.07;;;38.27;;
74612;SDS011;63119;51.788;8.824;2023-02-23T08:10:40;77.90;;;37.50;;
74612;SDS011;63119;51.788;8.824;2023-02-23T08:13:06;76.40;;;38.23;;
74612;SDS011;63119;51.788;8.824;2023-02-23T08:15:31;78.63;;;38.97;;
74612;SDS011;63119;51.788;8.824;2023-02-23T08:17:56;83.43;;;38.60;;
74612;SDS011;63119;51.788;8.824;2023-02-23T08:20:22;83.13;;;39.47;;
74612;SDS011;63119;51.788;8.824;2023-02-23T08:22:52;87.13;;;43.55;;
74612;SDS011;63119;51.788;8.824;2023-02-23T08:25:18;87.55;;;41.47;;
74612;SDS011;63119;51.788;8.824;2023-02-23T08:27:43;82.60;;;39.95;;
74612;SDS011;63119;51.788;8.824;2023-02-23T08:30:09;79.28;;;37.03;;
74612;SDS011;63119;51.788;8.824;2023-02-23T08:32:35;86.50;;;40.90;;
74612;SDS011;63119;51.788;8.824;2023-02-23T08:35:00;96.80;;;43.03;;
74612;SDS011;63119;51.788;8.824;2023-02-23T08:37:29;89.55;;;42.90;;
74612;SDS011;63119;51.788;8.824;2023-02-23T08:39:54;101.82;;;44.70;;
74612;SDS011;63119;51.788;8.824;2023-02-23T08:42:20;92.72;;;42.95;;
74612;SDS011;63119;51.788;8.824;2023-02-23T08:44:45;89.43;;;42.78;;
74612;SDS011;63119;51.788;8.824;2023-02-23T08:47:12;91.55;;;45.38;;
74612;SDS011;63119;51.788;8.824;2023-02-23T08:49:40;102.20;;;44.75;;
74612;SDS011;63119;51.788;8.824;2023-02-23T08:52:05;88.63;;;43.97;;
74612;SDS011;63119;51.788;8.824;2023-02-23T08:54:30;95.50;;;44.50;;
74612;SDS011;63119;51.788;8.824;2023-02-23T08:56:56;90.77;;;42.83;;
74612;SDS011;63119;51.788;8.824;2023-02-23T08:59:22;95.40;;;42.97;;
74612;SDS011;63119;51.788;8.824;2023-02-23T09:01:47;95.43;;;44.28;;
74612;SDS011;63119;51.788;8.824;2023-02-23T09:04:13;90.87;;;44.03;;
74612;SDS011;63119;51.788;8.824;2023-02-23T09:06:38;92.63;;;42.73;;
74612;SDS011;63119;51.788;8.824;2023-02-23T09:09:04;101.72;;;46.08;;
74612;SDS011;63119;51.788;8.824;2023-02-23T09:11:30;95.10;;;45.13;;
74612;SDS011;63119;51.788;8.824;2023-02-23T09:13:55;92.20;;;43.77;;
74612;SDS011;63119;51.788;8.824;2023-02-23T09:16:21;97.47;;;44.87;;
74612;SDS011;63119;51.788;8.824;2023-02-23T09:18:46;94.47;;;43.47;;
74612;SDS011;63119;51.788;8.824;2023-02-23T09:21:13;85.77;;;42.53;;
74612;SDS011;63119;51.788;8.824;2023-02-23T09:23:42;93.93;;;43.13;;
74612;SDS011;63119;51.788;8.824;2023-02-23T09:26:09;96.47;;;43.25;;
74612;SDS011;63119;51.788;8.824;2023-02-23T09:28:34;93.35;;;46.28;;
74612;SDS011;63119;51.788;8.824;2023-02-23T09:31:06;94.03;;;42.40;;
74612;SDS011;63119;51.788;8.824;2023-02-23T09:33:33;91.40;;;41.83;;
74612;SDS011;63119;51.788;8.824;2023-02-23T09:35:59;95.38;;;43.72;;
74612;SDS011;63119;51.788;8.824;2023-02-23T09:38:24;85.32;;;44.63;;
74612;SDS011;63119;51.788;8.824;2023-02-23T09:40:51;92.20;;;44.72;;
74612;SDS011;63119;51.788;8.824;2023-02-23T09:43:39;88.15;;;42.17;;
74612;SDS011;63119;51.788;8.824;2023-02-23T09:48:54;78.13;;;38.80;;
74612;SDS011;63119;51.788;8.824;2023-02-23T09:51:22;85.32;;;41.15;;
74612;SDS011;63119;51.788;8.824;2023-02-23T09:53:55;87.95;;;41.22;;
74612;SDS011;63119;51.788;8.824;2023-02-23T09:56:29;87.35;;;42.15;;
74612;SDS011;63119;51.788;8.824;2023-02-23T09:58:58;89.68;;;43.03;;
74612;SDS011;63119;51.788;8.824;2023-02-23T10:04:23;79.72;;;40.45;;
74612;SDS011;63119;51.788;8.824;2023-02-23T10:09:48;81.88;;;42.20;;
74612;SDS011;63119;51.788;8.824;2023-02-23T10:15:14;80.65;;;40.10;;
74612;SDS011;63119;51.788;8.824;2023-02-23T10:20:52;76.03;;;40.00;;
74612;SDS011;63119;51.788;8.824;2023-02-23T10:23:27;80.38;;;41.20;;
74612;SDS011;63119;51.788;8.824;2023-02-23T10:25:56;77.28;;;37.53;;
74612;SDS011;63119;51.788;8.824;2023-02-23T10:28:24;81.85;;;39.47;;
74612;SDS011;63119;51.788;8.824;2023-02-23T10:30:51;80.45;;;40.15;;
74612;SDS011;63119;51.788;8.824;2023-02-23T10:33:20;77.57;;;38.95;;
74612;SDS011;63119;51.788;8.824;2023-02-23T10:35:51;78.32;;;38.45;;
74612;SDS011;63119;51.788;8.824;2023-02-23T10:38:24;74.22;;;37.53;;
74612;SDS011;63119;51.788;8.824;2023-02-23T10:40:50;74.23;;;38.57;;
74612;SDS011;63119;51.788;8.824;2023-02-23T10:43:19;70.07;;;37.78;;
74612;SDS011;63119;51.788;8.824;2023-02-23T10:45:45;67.97;;;37.27;;
74612;SDS011;63119;51.788;8.824;2023-02-23T10:48:16;84.70;;;44.30;;
74612;SDS011;63119;51.788;8.824;2023-02-23T10:50:44;66.32;;;37.55;;
74612;SDS011;63119;51.788;8.824;2023-02-23T10:53:18;67.97;;;36.75;;
74612;SDS011;63119;51.788;8.824;2023-02-23T10:55:58;58.65;;;31.08;;
74612;SDS011;63119;51.788;8.824;2023-02-23T10:58:30;76.32;;;37.45;;
74612;SDS011;63119;51.788;8.824;2023-02-23T11:01:03;72.50;;;37.30;;
74612;SDS011;63119;51.788;8.824;2023-02-23T11:03:39;77.90;;;38.70;;
74612;SDS011;63119;51.788;8.824;2023-02-23T11:08:54;70.25;;;36.50;;
74612;SDS011;63119;51.788;8.824;2023-02-23T11:11:22;70.07;;;34.97;;
74612;SDS011;63119;51.788;8.824;2023-02-23T11:13:50;63.70;;;34.65;;
74612;SDS011;63119;51.788;8.824;2023-02-23T11:18:55;72.40;;;38.08;;
74612;SDS011;63119;51.788;8.824;2023-02-23T11:21:24;81.13;;;43.50;;
74612;SDS011;63119;51.788;8.824;2023-02-23T11:23:54;80.55;;;40.67;;
74612;SDS011;63119;51.788;8.824;2023-02-23T11:26:24;72.80;;;41.28;;
74612;SDS011;63119;51.788;8.824;2023-02-23T11:29:16;72.65;;;37.97;;
74612;SDS011;63119;51.788;8.824;2023-02-23T11:31:59;68.88;;;37.72;;
74612;SDS011;63119;51.788;8.824;2023-02-23T11:34:33;70.75;;;38.63;;
74612;SDS011;63119;51.788;8.824;2023-02-23T11:37:04;65.25;;;34.38;;
74612;SDS011;63119;51.788;8.824;2023-02-23T11:39:55;65.47;;;35.88;;
74612;SDS011;63119;51.788;8.824;2023-02-23T11:42:22;60.53;;;32.25;;
74612;SDS011;63119;51.788;8.824;2023-02-23T11:44:51;55.78;;;31.77;;
74612;SDS011;63119;51.788;8.824;2023-02-23T11:47:27;56.72;;;31.42;;
74612;SDS011;63119;51.788;8.824;2023-02-23T11:52:21;53.30;;;29.97;;
74612;SDS011;63119;51.788;8.824;2023-02-23T11:54:49;51.90;;;29.83;;
74612;SDS011;63119;51.788;8.824;2023-02-23T11:57:20;54.55;;;29.80;;
74612;SDS011;63119;51.788;8.824;2023-02-23T11:59:50;54.03;;;29.52;;
74612;SDS011;63119;51.788;8.824;2023-02-23T12:02:19;58.95;;;31.15;;
74612;SDS011;63119;51.788;8.824;2023-02-23T12:04:47;54.85;;;30.67;;
74612;SDS011;63119;51.788;8.824;2023-02-23T12:07:30;54.40;;;30.83;;
74612;SDS011;63119;51.788;8.824;2023-02-23T12:12:43;66.15;;;34.95;;
74612;SDS011;63119;51.788;8.824;2023-02-23T12:15:18;58.47;;;30.60;;
74612;SDS011;63119;51.788;8.824;2023-02-23T12:17:50;58.28;;;31.40;;
74612;SDS011;63119;51.788;8.824;2023-02-23T12:20:24;58.17;;;31.58;;
74612;SDS011;63119;51.788;8.824;2023-02-23T12:22:58;54.45;;;30.30;;
74612;SDS011;63119;51.788;8.824;2023-02-23T12:25:30;59.60;;;31.17;;
74612;SDS011;63119;51.788;8.824;2023-02-23T12:28:02;63.95;;;33.13;;
74612;SDS011;63119;51.788;8.824;2023-02-23T12:30:43;57.45;;;32.47;;
74612;SDS011;63119;51.788;8.824;2023-02-23T12:33:26;58.88;;;29.52;;
74612;SDS011;63119;51.788;8.824;2023-02-23T12:36:10;57.75;;;30.80;;
74612;SDS011;63119;51.788;8.824;2023-02-23T12:38:59;52.85;;;28.92;;
74612;SDS011;63119;51.788;8.824;2023-02-23T12:44:36;65.82;;;33.08;;
74612;SDS011;63119;51.788;8.824;2023-02-23T12:47:15;60.80;;;31.67;;
74612;SDS011;63119;51.788;8.824;2023-02-23T12:49:57;56.88;;;29.85;;
74612;SDS011;63119;51.788;8.824;2023-02-23T12:52:31;57.88;;;27.83;;
74612;SDS011;63119;51.788;8.824;2023-02-23T12:55:00;53.95;;;27.83;;
74612;SDS011;63119;51.788;8.824;2023-02-23T12:57:31;52.15;;;27.70;;
74612;SDS011;63119;51.788;8.824;2023-02-23T13:05:43;49.35;;;26.27;;
74612;SDS011;63119;51.788;8.824;2023-02-23T13:08:32;50.95;;;27.30;;
74612;SDS011;63119;51.788;8.824;2023-02-23T13:11:15;53.72;;;28.70;;
74612;SDS011;63119;51.788;8.824;2023-02-23T13:14:13;50.03;;;26.88;;
74612;SDS011;63119;51.788;8.824;2023-02-23T13:16:50;78.60;;;37.63;;
74612;SDS011;63119;51.788;8.824;2023-02-23T13:19:23;58.65;;;32.40;;
74612;SDS011;63119;51.788;8.824;2023-02-23T13:22:15;51.13;;;28.42;;
74612;SDS011;63119;51.788;8.824;2023-02-23T13:25:10;51.75;;;28.65;;
74612;SDS011;63119;51.788;8.824;2023-02-23T13:27:54;44.28;;;24.60;;
74612;SDS011;63119;51.788;8.824;2023-02-23T13:30:23;51.88;;;27.25;;
74612;SDS011;63119;51.788;8.824;2023-02-23T13:32:49;49.58;;;26.27;;
74612;SDS011;63119;51.788;8.824;2023-02-23T13:35:15;49.78;;;24.10;;
74612;SDS011;63119;51.788;8.824;2023-02-23T13:37:44;49.63;;;24.80;;
74612;SDS011;63119;51.788;8.824;2023-02-23T13:43:07;44.55;;;23.80;;
74612;SDS011;63119;51.788;8.824;2023-02-23T13:48:52;43.95;;;22.92;;
74612;SDS011;63119;51.788;8.824;2023-02-23T13:51:27;42.83;;;23.15;;
74612;SDS011;63119;51.788;8.824;2023-02-23T13:56:40;41.45;;;21.85;;
74612;SDS011;63119;51.788;8.824;2023-02-23T13:59:09;39.25;;;20.88;;
74612;SDS011;63119;51.788;8.824;2023-02-23T14:01:44;38.88;;;20.95;;
74612;SDS011;63119;51.788;8.824;2023-02-23T14:04:15;54.35;;;27.20;;
74612;SDS011;63119;51.788;8.824;2023-02-23T14:09:34;38.78;;;21.58;;
74612;SDS011;63119;51.788;8.824;2023-02-23T14:12:11;42.15;;;21.30;;
74612;SDS011;63119;51.788;8.824;2023-02-23T14:14:43;41.67;;;22.15;;
74612;SDS011;63119;51.788;8.824;2023-02-23T14:19:41;42.88;;;22.27;;
74612;SDS011;63119;51.788;8.824;2023-02-23T14:22:26;40.97;;;20.95;;
74612;SDS011;63119;51.788;8.824;2023-02-23T14:27:55;41.28;;;19.85;;
74612;SDS011;63119;51.788;8.824;2023-02-23T14:30:25;39.97;;;18.10;;
74612;SDS011;63119;51.788;8.824;2023-02-23T14:32:59;42.17;;;18.52;;
74612;SDS011;63119;51.788;8.824;2023-02-23T14:38:00;39.07;;;17.37;;
74612;SDS011;63119;51.788;8.824;2023-02-23T14:40:32;33.70;;;17.88;;
74612;SDS011;63119;51.788;8.824;2023-02-23T14:43:02;41.25;;;19.48;;
74612;SDS011;63119;51.788;8.824;2023-02-23T14:46:07;37.17;;;18.98;;
74612;SDS011;63119;51.788;8.824;2023-02-23T14:48:43;42.75;;;19.35;;
74612;SDS011;63119;51.788;8.824;2023-02-23T14:51:19;41.08;;;18.75;;
74612;SDS011;63119;51.788;8.824;2023-02-23T14:53:49;39.05;;;19.65;;
74612;SDS011;63119;51.788;8.824;2023-02-23T14:56:21;37.72;;;18.65;;
74612;SDS011;63119;51.788;8.824;2023-02-23T14:58:54;43.40;;;18.67;;
74612;SDS011;63119;51.788;8.824;2023-02-23T15:01:33;37.53;;;16.95;;
74612;SDS011;63119;51.788;8.824;2023-02-23T15:04:10;35.63;;;16.98;;
74612;SDS011;63119;51.788;8.824;2023-02-23T15:06:38;37.25;;;16.98;;
74612;SDS011;63119;51.788;8.824;2023-02-23T15:09:06;36.38;;;16.73;;
74612;SDS011;63119;51.788;8.824;2023-02-23T15:11:39;33.60;;;15.85;;
74612;SDS011;63119;51.788;8.824;2023-02-23T15:14:08;32.42;;;14.40;;
74612;SDS011;63119;51.788;8.824;2023-02-23T15:16:38;33.22;;;14.85;;
74612;SDS011;63119;51.788;8.824;2023-02-23T15:21:57;34.75;;;15.45;;
74612;SDS011;63119;51.788;8.824;2023-02-23T15:24:30;52.53;;;23.17;;
74612;SDS011;63119;51.788;8.824;2023-02-23T15:27:03;32.50;;;14.40;;
74612;SDS011;63119;51.788;8.824;2023-02-23T15:29:31;33.17;;;15.00;;
74612;SDS011;63119;51.788;8.824;2023-02-23T15:32:09;32.63;;;14.25;;
74612;SDS011;63119;51.788;8.824;2023-02-23T15:34:38;34.65;;;14.38;;
74612;SDS011;63119;51.788;8.824;2023-02-23T15:37:05;34.20;;;14.50;;
74612;SDS011;63119;51.788;8.824;2023-02-23T15:39:44;25.40;;;12.27;;
74612;SDS011;63119;51.788;8.824;2023-02-23T15:42:14;25.70;;;11.38;;
74612;SDS011;63119;51.788;8.824;2023-02-23T15:44:42;27.50;;;12.10;;
74612;SDS011;63119;51.788;8.824;2023-02-23T15:47:10;24.65;;;11.93;;
74612;SDS011;63119;51.788;8.824;2023-02-23T15:49:45;26.08;;;11.60;;
74612;SDS011;63119;51.788;8.824;2023-02-23T15:52:15;25.38;;;10.63;;
74612;SDS011;63119;51.788;8.824;2023-02-23T15:54:52;26.52;;;11.25;;
74612;SDS011;63119;51.788;8.824;2023-02-23T15:57:30;24.60;;;10.10;;
74612;SDS011;63119;51.788;8.824;2023-02-23T15:59:59;21.40;;;10.13;;
74612;SDS011;63119;51.788;8.824;2023-02-23T16:02:32;23.65;;;10.73;;
74612;SDS011;63119;51.788;8.824;2023-02-23T16:05:06;24.27;;;10.88;;
74612;SDS011;63119;51.788;8.824;2023-02-23T16:07:39;22.38;;;9.55;;